Time;durP1;ratioP1;P1;durP2;ratioP2;P2;SDS_P1;SDS_P2;PMS_P1;PMS_P2;Temp;Humidity;BMP_temperature;BMP_pressure;BME280_temperature;BME280_humidity;BME280_pressure;Samples;Min_cycle;Max_cycle;Signal;HPM_P1;HPM_P2
2021/08/30 00:00:05;;;;;;;9.85;4.45;;;17.00;97.20;;;;;;5033126;28;20045;-76
2021/08/30 00:02:30;;;;;;;8.80;4.07;;;17.00;97.20;;;;;;5033660;28;20036;-76
2021/08/30 00:04:56;;;;;;;9.55;4.38;;;17.00;97.20;;;;;;5033623;28;20033;-76
2021/08/30 00:07:22;;;;;;;8.55;4.05;;;17.00;97.20;;;;;;5031776;28;20044;-77
2021/08/30 00:09:47;;;;;;;12.52;4.40;;;16.90;97.20;;;;;;5032257;28;20053;-77
2021/08/30 00:12:13;;;;;;;8.73;4.00;;;16.90;97.20;;;;;;5032824;28;20034;-77
2021/08/30 00:14:39;;;;;;;8.65;4.38;;;16.90;97.20;;;;;;5033510;28;20057;-77
2021/08/30 00:17:05;;;;;;;6.63;3.95;;;16.90;97.20;;;;;;5032833;28;20029;-77
2021/08/30 00:19:34;;;;;;;7.25;4.20;;;16.90;97.20;;;;;;5033381;28;20483;-77
2021/08/30 00:22:01;;;;;;;10.50;4.35;;;16.90;97.20;;;;;;5032044;28;20517;-77
2021/08/30 00:24:27;;;;;;;9.07;4.25;;;16.90;97.20;;;;;;5032745;28;20095;-77
2021/08/30 00:26:53;;;;;;;8.85;4.55;;;16.90;97.20;;;;;;5033236;28;20449;-76
2021/08/30 00:29:26;;;;;;;8.35;4.10;;;16.90;97.20;;;;;;5032431;28;20140;-76
2021/08/30 00:31:56;;;;;;;9.30;4.60;;;16.80;97.20;;;;;;5031572;28;20032;-76
2021/08/30 00:34:23;;;;;;;6.43;3.55;;;16.80;97.20;;;;;;5031147;28;20540;-76
2021/08/30 00:36:48;;;;;;;8.20;4.00;;;16.80;97.20;;;;;;5033071;28;20028;-76
2021/08/30 00:39:21;;;;;;;11.05;4.13;;;16.80;97.20;;;;;;5032704;28;20386;-76
2021/08/30 00:41:49;;;;;;;7.88;4.38;;;16.80;97.30;;;;;;5032519;28;20049;-76
2021/08/30 00:44:14;;;;;;;7.97;3.67;;;16.80;97.30;;;;;;5030942;28;20413;-76
2021/08/30 00:46:40;;;;;;;8.80;4.80;;;16.80;97.20;;;;;;5031553;28;20060;-76
2021/08/30 00:49:06;;;;;;;7.75;3.72;;;16.80;97.20;;;;;;5043282;28;20152;-76
2021/08/30 00:51:32;;;;;;;7.65;3.63;;;16.90;97.20;;;;;;5052704;28;20302;-77
2021/08/30 00:53:58;;;;;;;8.55;4.10;;;16.90;97.10;;;;;;5052465;28;20045;-77
2021/08/30 00:56:28;;;;;;;7.70;4.00;;;17.00;97.10;;;;;;5051923;28;20524;-76
2021/08/30 00:58:54;;;;;;;10.18;4.45;;;17.00;97.00;;;;;;5052552;28;20036;-79
2021/08/30 01:01:20;;;;;;;8.85;4.20;;;17.10;97.00;;;;;;5051988;28;20373;-79
2021/08/30 01:03:46;;;;;;;9.00;3.90;;;17.10;96.90;;;;;;5052807;28;20055;-78
2021/08/30 01:06:48;;;;;;;10.55;4.60;;;17.10;96.90;;;;;;5051909;28;20036;-78
2021/08/30 01:09:44;;;;;;;8.88;4.03;;;17.10;96.80;;;;;;5049349;28;20048;-78
2021/08/30 01:12:14;;;;;;;9.63;3.85;;;17.10;96.80;;;;;;5034193;28;20033;-78
2021/08/30 01:14:48;;;;;;;7.80;4.30;;;17.20;96.80;;;;;;5052123;28;20021;-78
2021/08/30 01:17:17;;;;;;;10.15;4.25;;;17.20;96.80;;;;;;5050090;28;20032;-78
2021/08/30 01:19:51;;;;;;;8.20;4.15;;;17.20;96.80;;;;;;5051940;28;20365;-78
2021/08/30 01:22:19;;;;;;;8.23;3.70;;;17.30;96.80;;;;;;5051438;28;20483;-78
2021/08/30 01:24:46;;;;;;;9.23;4.15;;;17.30;96.70;;;;;;5052150;28;20086;-78
2021/08/30 01:27:13;;;;;;;8.18;4.15;;;17.20;96.70;;;;;;5050157;28;20090;-78
2021/08/30 01:29:55;;;;;;;9.90;4.07;;;17.30;96.70;;;;;;5052127;28;20040;-78
2021/08/30 01:32:39;;;;;;;8.43;3.65;;;17.30;96.70;;;;;;5051442;28;20025;-78
2021/08/30 01:35:10;;;;;;;8.77;4.57;;;17.30;96.70;;;;;;5052089;28;20025;-78
2021/08/30 01:37:39;;;;;;;8.80;4.38;;;17.30;96.70;;;;;;5052318;28;20052;-78
2021/08/30 01:40:08;;;;;;;8.50;4.38;;;17.30;96.60;;;;;;5051440;28;20128;-78
2021/08/30 01:42:38;;;;;;;9.63;4.38;;;17.30;96.60;;;;;;5051210;28;20050;-78
2021/08/30 01:45:07;;;;;;;8.65;4.65;;;17.30;96.60;;;;;;5050585;28;20033;-79
2021/08/30 01:47:34;;;;;;;7.72;4.32;;;17.30;96.60;;;;;;5051547;28;20031;-77
2021/08/30 01:50:02;;;;;;;8.80;4.53;;;17.30;96.60;;;;;;5050617;28;20035;-78
2021/08/30 01:52:31;;;;;;;7.72;4.10;;;17.30;96.60;;;;;;5049855;28;20017;-77
2021/08/30 01:55:02;;;;;;;7.28;3.72;;;17.30;96.60;;;;;;5050601;28;20029;-78
2021/08/30 01:57:28;;;;;;;;;;;17.30;96.60;;;;;;5051739;28;20090;-78
2021/08/30 02:02:38;;;;;;;8.10;4.70;;;17.30;96.50;;;;;;5051926;28;20151;-76
2021/08/30 02:05:04;;;;;;;8.20;3.67;;;17.30;96.50;;;;;;5051786;28;20025;-76
2021/08/30 02:07:30;;;;;;;8.23;4.43;;;17.30;96.50;;;;;;5049804;28;20243;-77
2021/08/30 02:09:55;;;;;;;6.88;3.40;;;17.30;96.50;;;;;;5051507;28;20033;-76
2021/08/30 02:12:21;;;;;;;7.88;4.60;;;17.30;96.50;;;;;;5049650;28;20013;-77
2021/08/30 02:14:47;;;;;;;9.10;4.45;;;17.30;96.50;;;;;;5051811;28;20040;-77
2021/08/30 02:17:21;;;;;;;7.72;4.25;;;17.30;96.50;;;;;;5050819;28;20032;-77
2021/08/30 02:20:00;;;;;;;7.32;4.00;;;17.30;96.50;;;;;;5050373;28;20436;-77
2021/08/30 02:22:34;;;;;;;10.30;5.35;;;17.30;96.50;;;;;;5050993;28;20021;-77
2021/08/30 02:25:09;;;;;;;9.32;4.60;;;17.30;96.50;;;;;;5050180;28;20055;-77
2021/08/30 02:27:54;;;;;;;7.38;3.72;;;17.30;96.50;;;;;;5050917;28;20052;-77
2021/08/30 02:30:23;;;;;;;9.70;3.97;;;17.30;96.50;;;;;;5050906;28;20033;-76
2021/08/30 02:32:53;;;;;;;8.32;4.30;;;17.30;96.50;;;;;;5049955;28;20380;-77
2021/08/30 02:35:23;;;;;;;8.07;4.10;;;17.30;96.50;;;;;;5050931;28;20029;-76
2021/08/30 02:37:53;;;;;;;8.60;4.15;;;17.30;96.50;;;;;;5031394;28;20033;-77
2021/08/30 02:40:22;;;;;;;7.35;3.92;;;17.30;96.50;;;;;;5030180;28;20046;-76
2021/08/30 02:42:49;;;;;;;7.90;4.13;;;17.40;96.50;;;;;;5031497;28;20057;-77
2021/08/30 02:45:16;;;;;;;9.00;4.20;;;17.30;96.50;;;;;;5030896;28;20048;-77
2021/08/30 02:47:42;;;;;;;8.57;4.50;;;17.40;96.50;;;;;;5030021;28;20022;-77
2021/08/30 02:50:10;;;;;;;8.93;4.78;;;17.30;96.50;;;;;;5031189;28;20394;-77
2021/08/30 02:52:38;;;;;;;8.77;4.70;;;17.30;96.50;;;;;;5030511;28;20018;-76
2021/08/30 02:55:05;;;;;;;7.57;4.47;;;17.30;96.50;;;;;;5034057;28;20032;-77
2021/08/30 02:57:33;;;;;;;7.53;4.40;;;17.20;96.50;;;;;;5034429;28;20018;-77
2021/08/30 02:59:59;;;;;;;8.32;3.95;;;17.20;96.50;;;;;;5034825;28;20025;-77
2021/08/30 03:02:25;;;;;;;9.38;4.78;;;17.30;96.60;;;;;;5033972;28;20113;-77
2021/08/30 03:04:52;;;;;;;6.32;3.85;;;17.20;96.60;;;;;;5037161;28;20018;-77
2021/08/30 03:07:18;;;;;;;11.00;4.65;;;17.20;96.50;;;;;;5053618;28;20028;-77
2021/08/30 03:09:45;;;;;;;9.05;4.35;;;17.20;96.60;;;;;;5054170;28;20025;-77
2021/08/30 03:12:13;;;;;;;7.10;4.18;;;17.20;96.60;;;;;;5054539;28;20100;-77
2021/08/30 03:14:40;;;;;;;9.07;4.38;;;17.20;96.60;;;;;;5054024;28;20418;-76
2021/08/30 03:17:10;;;;;;;9.77;5.18;;;17.20;96.60;;;;;;5053265;28;20443;-76
2021/08/30 03:19:40;;;;;;;8.45;4.47;;;17.20;96.60;;;;;;5053869;28;20090;-77
2021/08/30 03:22:08;;;;;;;9.38;4.28;;;17.20;96.60;;;;;;5054450;28;20028;-77
2021/08/30 03:24:33;;;;;;;8.82;4.45;;;17.20;96.60;;;;;;5054045;28;20445;-76
2021/08/30 03:26:59;;;;;;;9.68;4.35;;;17.20;96.60;;;;;;5053021;28;20029;-76
2021/08/30 03:29:26;;;;;;;11.45;5.10;;;17.20;96.60;;;;;;5053316;28;20055;-76
2021/08/30 03:31:52;;;;;;;9.60;4.88;;;17.20;96.60;;;;;;5054004;28;20101;-76
2021/08/30 03:34:21;;;;;;;8.95;4.25;;;17.20;96.60;;;;;;5053617;28;20017;-76
2021/08/30 03:36:47;;;;;;;10.88;5.35;;;17.20;96.60;;;;;;5054413;28;20064;-76
2021/08/30 03:39:13;;;;;;;9.35;4.68;;;17.20;96.60;;;;;;5054325;28;20025;-76
2021/08/30 03:41:40;;;;;;;11.18;4.78;;;17.20;96.60;;;;;;5052197;28;20049;-76
2021/08/30 03:44:09;;;;;;;8.93;4.57;;;17.20;96.60;;;;;;5054086;28;20029;-76
2021/08/30 03:46:35;;;;;;;8.45;4.72;;;17.20;96.60;;;;;;5053447;28;20025;-76
2021/08/30 03:49:01;;;;;;;8.45;4.70;;;17.20;96.60;;;;;;5052801;28;20032;-76
2021/08/30 03:51:28;;;;;;;12.65;5.05;;;17.20;96.50;;;;;;5053183;28;20025;-76
2021/08/30 03:53:55;;;;;;;10.02;5.13;;;17.30;96.50;;;;;;5047293;28;20032;-77
2021/08/30 03:56:23;;;;;;;7.93;4.72;;;17.20;96.50;;;;;;5040488;28;20021;-77
2021/08/30 03:58:50;;;;;;;9.00;5.13;;;17.30;96.50;;;;;;5041674;28;20082;-77
2021/08/30 04:01:23;;;;;;;12.15;5.45;;;17.30;96.50;;;;;;5041061;28;20029;-76
2021/08/30 04:03:50;;;;;;;9.80;5.47;;;17.30;96.50;;;;;;5039534;28;20021;-77
2021/08/30 04:06:16;;;;;;;14.50;5.75;;;17.30;96.50;;;;;;5039824;28;20064;-77
2021/08/30 04:08:42;;;;;;;10.65;5.65;;;17.30;96.50;;;;;;5046823;28;20037;-77
2021/08/30 04:11:09;;;;;;;9.88;5.20;;;17.30;96.50;;;;;;5045837;28;20461;-77
2021/08/30 04:13:36;;;;;;;15.70;6.38;;;17.30;96.50;;;;;;5038789;28;20412;-76
2021/08/30 04:16:02;;;;;;;9.40;5.05;;;17.30;96.50;;;;;;5039955;28;20025;-77
2021/08/30 04:18:27;;;;;;;10.55;5.30;;;17.40;96.50;;;;;;5040213;28;20025;-77
2021/08/30 04:20:53;;;;;;;13.02;6.05;;;17.40;96.50;;;;;;5042724;28;20048;-77
2021/08/30 04:23:19;;;;;;;12.32;5.85;;;17.30;96.50;;;;;;5037962;28;20406;-77
2021/08/30 04:25:44;;;;;;;17.45;7.93;;;17.40;96.50;;;;;;5049247;28;20099;-78
2021/08/30 04:28:10;;;;;;;13.35;6.07;;;17.40;96.50;;;;;;5043731;28;20056;-78
2021/08/30 04:30:36;;;;;;;12.60;6.20;;;17.40;96.50;;;;;;5037087;28;20028;-76
2021/08/30 04:33:02;;;;;;;10.05;4.78;;;17.50;96.50;;;;;;5042498;28;20025;-78
2021/08/30 04:35:28;;;;;;;12.50;6.28;;;17.50;96.50;;;;;;5038665;28;20022;-77
2021/08/30 04:37:54;;;;;;;11.73;6.00;;;17.50;96.50;;;;;;5037291;28;20071;-77
2021/08/30 04:40:19;;;;;;;12.43;5.57;;;17.50;96.50;;;;;;5066725;28;20056;-76
2021/08/30 04:42:45;;;;;;;12.93;5.13;;;17.50;96.50;;;;;;5038557;28;20036;-77
2021/08/30 04:45:11;;;;;;;11.45;6.53;;;17.50;96.40;;;;;;5032205;28;20047;-77
2021/08/30 04:47:36;;;;;;;16.25;6.32;;;17.50;96.40;;;;;;5031650;28;20036;-77
2021/08/30 04:50:04;;;;;;;12.93;6.30;;;17.50;96.40;;;;;;5031157;28;20131;-77
2021/08/30 04:52:31;;;;;;;10.63;5.80;;;17.50;96.40;;;;;;5047986;28;20126;-76
2021/08/30 04:54:56;;;;;;;11.32;6.05;;;17.50;96.40;;;;;;5052328;28;20021;-77
2021/08/30 04:57:22;;;;;;;12.43;5.50;;;17.60;96.50;;;;;;5050908;28;20379;-77
2021/08/30 04:59:48;;;;;;;15.18;6.72;;;17.60;96.50;;;;;;5051707;28;20025;-77
2021/08/30 05:02:13;;;;;;;12.40;6.57;;;17.60;96.40;;;;;;5050917;28;20033;-77
2021/08/30 05:04:39;;;;;;;12.43;6.00;;;17.60;96.50;;;;;;5051072;28;20051;-77
2021/08/30 05:07:04;;;;;;;13.07;6.43;;;17.60;96.50;;;;;;5035478;28;20029;-76
2021/08/30 05:09:30;;;;;;;14.30;7.18;;;17.60;96.50;;;;;;5031735;28;20029;-77
2021/08/30 05:11:56;;;;;;;12.85;6.53;;;17.60;96.50;;;;;;5031028;28;20373;-78
2021/08/30 05:14:22;;;;;;;11.57;6.20;;;17.60;96.50;;;;;;5032211;28;20052;-78
2021/08/30 05:16:48;;;;;;;12.55;6.55;;;17.50;96.60;;;;;;5041408;28;20368;-77
2021/08/30 05:19:14;;;;;;;13.43;6.68;;;17.60;96.50;;;;;;5050914;28;20453;-78
2021/08/30 05:21:39;;;;;;;16.42;7.05;;;17.60;96.50;;;;;;5031396;28;20481;-77
2021/08/30 05:24:08;;;;;;;14.50;6.72;;;17.50;96.50;;;;;;5045530;28;20039;-77
2021/08/30 05:26:35;;;;;;;14.82;7.03;;;17.50;96.50;;;;;;5046715;28;20021;-77
2021/08/30 05:29:01;;;;;;;14.27;7.40;;;17.60;96.60;;;;;;5050327;28;20036;-77
2021/08/30 05:31:27;;;;;;;12.02;6.57;;;17.60;96.60;;;;;;5059704;28;20127;-77
2021/08/30 05:33:52;;;;;;;15.80;6.60;;;17.60;96.50;;;;;;5044357;28;20524;-76
2021/08/30 05:36:18;;;;;;;15.13;6.38;;;17.60;96.50;;;;;;5037662;28;20021;-77
2021/08/30 05:38:44;;;;;;;21.10;6.97;;;17.60;96.50;;;;;;5046792;28;20049;-77
2021/08/30 05:41:10;;;;;;;11.07;5.20;;;17.60;96.50;;;;;;5031812;28;20401;-77
2021/08/30 05:43:36;;;;;;;13.65;7.53;;;17.60;96.50;;;;;;5030165;28;20021;-76
2021/08/30 05:46:02;;;;;;;13.30;6.45;;;17.60;96.50;;;;;;5031978;28;20554;-77
2021/08/30 05:48:27;;;;;;;12.73;6.88;;;17.60;96.60;;;;;;5031721;28;20116;-75
2021/08/30 05:50:53;;;;;;;14.50;7.47;;;17.50;96.60;;;;;;5031853;28;20053;-77
2021/08/30 05:53:19;;;;;;;12.93;7.30;;;17.60;96.70;;;;;;5031954;28;20159;-76
2021/08/30 05:55:45;;;;;;;14.07;6.88;;;17.50;96.70;;;;;;5031295;28;20112;-79
2021/08/30 05:58:12;;;;;;;10.10;6.10;;;17.60;96.70;;;;;;5030579;28;20191;-80
2021/08/30 06:00:38;;;;;;;14.98;6.80;;;17.60;96.70;;;;;;5031533;28;20087;-76
2021/08/30 06:03:03;;;;;;;14.25;7.25;;;17.60;96.70;;;;;;5030680;28;20112;-77
2021/08/30 06:05:29;;;;;;;15.95;7.75;;;17.60;96.60;;;;;;5031160;28;20032;-76
2021/08/30 06:07:55;;;;;;;12.90;5.78;;;17.70;96.60;;;;;;5030225;28;20355;-77
2021/08/30 06:10:20;;;;;;;13.35;6.32;;;17.70;96.60;;;;;;5046989;28;20028;-77
2021/08/30 06:12:46;;;;;;;12.80;6.60;;;17.80;96.50;;;;;;5031218;28;20041;-77
2021/08/30 06:15:12;;;;;;;13.88;7.20;;;17.80;96.50;;;;;;5031577;28;20025;-77
2021/08/30 06:17:37;;;;;;;13.93;8.07;;;17.80;96.40;;;;;;5031271;28;20033;-77
2021/08/30 06:20:04;;;;;;;16.10;7.25;;;17.80;96.40;;;;;;5031431;28;20033;-77
2021/08/30 06:22:29;;;;;;;11.48;6.15;;;17.90;96.40;;;;;;5029522;28;20028;-77
2021/08/30 06:24:55;;;;;;;11.77;5.38;;;17.90;96.50;;;;;;5046957;28;20373;-76
2021/08/30 06:27:21;;;;;;;13.88;6.53;;;17.90;96.40;;;;;;5031757;28;20454;-77
2021/08/30 06:29:49;;;;;;;10.63;5.90;;;17.90;96.30;;;;;;5033166;28;20052;-77
2021/08/30 06:32:15;;;;;;;14.68;7.35;;;18.00;96.30;;;;;;5033991;28;20075;-77
2021/08/30 06:34:40;;;;;;;12.45;6.82;;;18.00;96.30;;;;;;5033297;28;20113;-77
2021/08/30 06:37:06;;;;;;;13.77;6.88;;;18.00;96.30;;;;;;5050573;28;20021;-77
2021/08/30 06:39:32;;;;;;;12.60;6.97;;;18.10;96.30;;;;;;5049752;28;20025;-77
2021/08/30 06:41:57;;;;;;;11.80;5.68;;;18.10;96.20;;;;;;5035274;28;20049;-77
2021/08/30 06:44:23;;;;;;;13.25;6.13;;;18.10;96.20;;;;;;5035301;28;20405;-77
2021/08/30 06:46:49;;;;;;;15.88;7.93;;;18.20;96.10;;;;;;5033076;28;20090;-77
2021/08/30 06:49:14;;;;;;;15.38;6.60;;;18.30;96.00;;;;;;5034929;28;20080;-77
2021/08/30 06:51:40;;;;;;;13.80;6.90;;;18.30;96.00;;;;;;5034343;28;20029;-77
2021/08/30 06:54:06;;;;;;;13.23;6.68;;;18.40;95.90;;;;;;5034625;28;20025;-77
2021/08/30 06:56:31;;;;;;;13.15;6.57;;;18.40;95.90;;;;;;5032852;28;20021;-77
2021/08/30 06:58:57;;;;;;;12.23;6.53;;;18.40;95.80;;;;;;5034761;28;20043;-77
2021/08/30 07:01:23;;;;;;;15.38;6.85;;;18.40;95.90;;;;;;5034973;28;20060;-77
2021/08/30 07:03:48;;;;;;;14.68;6.90;;;18.50;95.90;;;;;;5034160;28;20433;-78
2021/08/30 07:06:14;;;;;;;16.70;7.72;;;18.50;95.90;;;;;;5034522;28;20033;-78
2021/08/30 07:08:40;;;;;;;12.52;6.32;;;18.50;95.90;;;;;;5032755;28;20030;-78
2021/08/30 07:11:06;;;;;;;14.93;7.63;;;18.50;95.80;;;;;;5035009;28;20083;-78
2021/08/30 07:13:31;;;;;;;12.38;6.70;;;18.50;95.90;;;;;;5034888;28;20365;-78
2021/08/30 07:15:57;;;;;;;15.00;7.63;;;18.50;95.90;;;;;;5049597;28;20481;-78
2021/08/30 07:18:23;;;;;;;17.20;7.10;;;18.50;95.90;;;;;;5034580;28;20033;-78
2021/08/30 07:20:48;;;;;;;16.85;7.35;;;18.50;95.90;;;;;;5033431;28;20119;-77
2021/08/30 07:23:16;;;;;;;13.75;6.38;;;18.50;95.80;;;;;;5034167;28;20018;-78
2021/08/30 07:25:42;;;;;;;13.43;6.88;;;18.50;95.80;;;;;;5033825;28;20072;-78
2021/08/30 07:28:08;;;;;;;13.75;7.15;;;18.60;95.80;;;;;;5034377;28;20512;-78
2021/08/30 07:30:34;;;;;;;14.52;7.07;;;18.60;95.70;;;;;;5033787;28;20021;-79
2021/08/30 07:33:00;;;;;;;14.57;6.82;;;18.60;95.70;;;;;;5034403;28;20450;-77
2021/08/30 07:35:27;;;;;;;17.23;7.72;;;18.70;95.70;;;;;;5034440;28;20048;-77
2021/08/30 07:37:53;;;;;;;16.20;7.72;;;18.70;95.60;;;;;;5033602;28;20020;-77
2021/08/30 07:40:19;;;;;;;14.30;6.93;;;18.80;95.60;;;;;;5032703;28;20053;-77
2021/08/30 07:42:45;;;;;;;16.05;7.32;;;18.80;95.50;;;;;;5033770;28;20056;-77
2021/08/30 07:45:11;;;;;;;16.35;7.15;;;18.90;95.40;;;;;;5034049;28;20026;-77
2021/08/30 07:47:37;;;;;;;18.55;7.70;;;19.00;95.30;;;;;;5031935;28;20029;-77
2021/08/30 07:50:05;;;;;;;13.18;7.10;;;19.00;95.30;;;;;;5032553;28;20067;-77
2021/08/30 07:52:31;;;;;;;14.60;7.45;;;19.10;95.20;;;;;;5033928;28;20022;-77
2021/08/30 07:54:57;;;;;;;14.70;7.25;;;19.10;95.20;;;;;;5033170;28;20037;-77
2021/08/30 07:57:22;;;;;;;14.63;7.35;;;19.10;95.10;;;;;;5033527;28;20021;-77
2021/08/30 07:59:48;;;;;;;15.60;7.18;;;19.10;95.10;;;;;;5033074;28;20079;-79
2021/08/30 08:02:14;;;;;;;14.43;7.35;;;19.10;95.10;;;;;;5033652;28;20030;-79
2021/08/30 08:04:39;;;;;;;16.13;7.68;;;19.10;95.10;;;;;;5031864;28;20018;-79
2021/08/30 08:07:05;;;;;;;14.18;7.38;;;19.10;95.10;;;;;;5032045;28;20454;-79
2021/08/30 08:09:30;;;;;;;11.88;6.72;;;19.10;95.20;;;;;;5033254;28;20109;-79
2021/08/30 08:11:56;;;;;;;13.07;7.00;;;19.10;95.20;;;;;;5032975;28;20532;-77
2021/08/30 08:14:22;;;;;;;14.70;7.18;;;19.10;95.30;;;;;;5033160;28;20092;-77
2021/08/30 08:16:48;;;;;;;15.55;8.35;;;19.00;95.30;;;;;;5032361;28;20029;-77
2021/08/30 08:19:14;;;;;;;9.65;5.72;;;19.00;95.40;;;;;;5032158;28;20120;-77
2021/08/30 08:21:41;;;;;;;16.42;7.03;;;18.90;95.40;;;;;;5032641;28;20461;-77
2021/08/30 08:24:08;;;;;;;11.25;6.00;;;18.90;95.40;;;;;;5032990;28;20402;-77
2021/08/30 08:26:35;;;;;;;14.38;7.30;;;18.90;95.40;;;;;;5031695;28;20031;-77
2021/08/30 08:29:01;;;;;;;13.43;6.97;;;19.00;95.40;;;;;;5032836;28;20104;-76
2021/08/30 08:31:27;;;;;;;15.27;7.90;;;19.10;95.30;;;;;;5033332;28;20025;-76
2021/08/30 08:33:53;;;;;;;15.52;7.03;;;19.20;95.20;;;;;;5032517;28;20017;-77
2021/08/30 08:36:20;;;;;;;13.18;7.88;;;19.20;95.00;;;;;;5033083;28;20450;-77
2021/08/30 08:38:47;;;;;;;12.48;7.50;;;19.30;94.90;;;;;;5032330;28;20022;-77
2021/08/30 08:41:13;;;;;;;17.27;7.88;;;19.30;94.90;;;;;;5031348;28;20041;-78
2021/08/30 08:43:39;;;;;;;12.20;6.53;;;19.30;94.80;;;;;;5032177;28;20026;-77
2021/08/30 08:46:05;;;;;;;11.13;6.70;;;19.40;94.80;;;;;;5032788;28;20022;-77
2021/08/30 08:48:31;;;;;;;13.82;7.13;;;19.50;94.70;;;;;;5048077;28;20036;-77
2021/08/30 08:50:56;;;;;;;13.32;6.00;;;19.60;94.60;;;;;;5032152;28;20026;-77
2021/08/30 08:53:23;;;;;;;10.52;7.05;;;19.60;94.60;;;;;;5032190;28;20105;-77
2021/08/30 08:55:49;;;;;;;13.88;6.97;;;19.60;94.50;;;;;;5032060;28;20085;-77
2021/08/30 08:58:18;;;;;;;12.35;7.25;;;19.60;94.50;;;;;;5031358;28;20113;-77
2021/08/30 09:00:46;;;;;;;17.35;7.00;;;19.80;94.50;;;;;;5030073;28;20036;-77
2021/08/30 09:03:20;;;;;;;12.50;6.25;;;19.80;94.40;;;;;;5032510;28;20451;-77
2021/08/30 09:05:46;;;;;;;12.18;6.40;;;19.90;94.30;;;;;;5031553;28;20438;-77
2021/08/30 09:08:30;;;;;;;11.23;6.60;;;20.00;94.10;;;;;;5031045;28;20031;-77
2021/08/30 09:10:56;;;;;;;10.65;6.22;;;20.10;94.00;;;;;;5031765;28;20031;-78
2021/08/30 09:13:30;;;;;;;12.27;6.15;;;20.10;93.90;;;;;;5032408;28;20022;-79
2021/08/30 09:16:00;;;;;;;10.43;5.60;;;20.10;93.90;;;;;;5031824;28;20104;-79
2021/08/30 09:18:30;;;;;;;11.27;6.05;;;20.10;93.90;;;;;;5032074;28;20022;-78
2021/08/30 09:21:04;;;;;;;9.95;5.50;;;20.00;94.00;;;;;;5030306;28;20048;-78
2021/08/30 09:23:30;;;;;;;10.55;6.85;;;20.00;94.10;;;;;;5032796;28;20035;-78
2021/08/30 09:26:00;;;;;;;12.20;6.20;;;19.90;94.10;;;;;;5031518;28;20101;-77
2021/08/30 09:28:33;;;;;;;10.85;5.82;;;19.90;94.10;;;;;;5032220;28;20029;-77
2021/08/30 09:31:00;;;;;;;12.30;6.68;;;19.90;94.00;;;;;;5046829;28;20033;-77
2021/08/30 09:33:26;;;;;;;10.77;5.78;;;19.90;94.00;;;;;;5032160;28;20022;-77
2021/08/30 09:36:01;;;;;;;10.80;5.90;;;20.00;94.00;;;;;;5031718;28;20029;-77
2021/08/30 09:38:35;;;;;;;10.90;5.57;;;20.00;93.90;;;;;;5031952;28;20029;-77
2021/08/30 09:41:05;;;;;;;9.77;5.57;;;20.10;93.80;;;;;;5030873;28;20124;-77
2021/08/30 09:43:31;;;;;;;10.07;5.07;;;20.20;93.60;;;;;;5031951;28;20041;-77
2021/08/30 09:46:00;;;;;;;7.88;4.63;;;20.20;93.50;;;;;;5031028;28;20536;-78
2021/08/30 09:48:27;;;;;;;9.05;5.32;;;20.30;93.40;;;;;;5031954;28;20017;-78
2021/08/30 09:50:59;;;;;;;8.95;5.35;;;20.30;93.30;;;;;;5030966;28;20071;-78
2021/08/30 09:53:24;;;;;;;10.65;5.63;;;20.40;93.30;;;;;;5030741;28;20067;-76
2021/08/30 09:55:50;;;;;;;9.98;5.00;;;20.40;93.20;;;;;;5031120;28;20076;-77
2021/08/30 09:58:18;;;;;;;8.52;4.93;;;20.40;93.10;;;;;;5031443;28;20422;-76
2021/08/30 10:00:46;;;;;;;9.52;5.55;;;20.40;93.10;;;;;;5031303;28;20117;-76
2021/08/30 10:03:14;;;;;;;8.65;5.07;;;20.40;93.00;;;;;;5030483;28;20021;-77
2021/08/30 10:05:41;;;;;;;7.75;5.20;;;20.40;93.10;;;;;;5035722;28;20061;-78
2021/08/30 10:08:07;;;;;;;10.45;5.47;;;20.30;93.00;;;;;;5033933;28;20112;-77
2021/08/30 10:10:33;;;;;;;10.18;5.53;;;20.30;93.00;;;;;;5035719;28;20048;-77
2021/08/30 10:13:01;;;;;;;8.95;4.47;;;20.30;92.90;;;;;;5035407;28;20458;-77
2021/08/30 10:15:28;;;;;;;6.72;4.20;;;20.20;92.90;;;;;;5035477;28;20484;-77
2021/08/30 10:17:55;;;;;;;9.63;5.57;;;20.30;93.00;;;;;;5035013;28;20487;-76
2021/08/30 10:20:23;;;;;;;9.82;5.20;;;20.30;92.90;;;;;;5035494;28;20029;-76
2021/08/30 10:23:00;;;;;;;12.00;5.63;;;20.40;92.80;;;;;;5034882;28;20021;-77
2021/08/30 10:25:26;;;;;;;8.68;5.07;;;20.60;92.50;;;;;;5034586;28;20429;-76
2021/08/30 10:27:58;;;;;;;9.00;4.72;;;20.60;92.40;;;;;;5033415;28;20021;-77
2021/08/30 10:30:25;;;;;;;9.38;5.45;;;20.70;92.30;;;;;;5035484;28;20174;-78
2021/08/30 10:32:56;;;;;;;8.80;5.20;;;20.80;92.20;;;;;;5034790;28;20037;-78
2021/08/30 10:35:25;;;;;;;6.70;4.30;;;20.80;91.90;;;;;;5033959;28;20049;-78
2021/08/30 10:37:57;;;;;;;8.13;5.57;;;20.90;91.90;;;;;;5034697;28;20026;-78
2021/08/30 10:40:23;;;;;;;11.75;5.32;;;20.90;91.90;;;;;;5035484;28;20064;-78
2021/08/30 10:43:16;;;;;;;8.27;5.13;;;20.80;91.80;;;;;;5034616;28;20056;-77
2021/08/30 10:45:44;;;;;;;8.30;5.25;;;20.80;91.70;;;;;;5033763;28;20060;-78
2021/08/30 10:48:14;;;;;;;9.45;4.80;;;20.80;91.80;;;;;;5033083;28;20547;-78
2021/08/30 10:50:43;;;;;;;10.10;5.43;;;20.80;91.80;;;;;;5035154;28;20034;-78
2021/08/30 10:53:31;;;;;;;7.55;4.70;;;20.80;91.70;;;;;;5032852;28;20032;-76
2021/08/30 10:56:07;;;;;;;8.15;4.30;;;20.90;91.70;;;;;;5033816;28;20091;-77
2021/08/30 10:58:33;;;;;;;8.02;5.05;;;21.10;91.40;;;;;;5034870;28;20108;-76
2021/08/30 11:01:13;;;;;;;6.10;3.78;;;21.30;91.10;;;;;;5032785;28;20220;-76
2021/08/30 11:03:40;;;;;;;9.77;4.80;;;21.50;90.90;;;;;;5034819;28;20018;-76
2021/08/30 11:06:15;;;;;;;8.65;5.05;;;21.50;90.60;;;;;;5034188;28;20021;-76
2021/08/30 11:08:43;;;;;;;8.15;4.35;;;21.50;90.40;;;;;;5034580;28;20040;-77
2021/08/30 11:11:08;;;;;;;5.75;3.55;;;21.50;90.50;;;;;;5032784;28;20547;-77
2021/08/30 11:13:34;;;;;;;8.05;4.47;;;21.40;90.50;;;;;;5034497;28;20025;-76
2021/08/30 11:16:00;;;;;;;9.48;4.45;;;21.30;90.50;;;;;;5033802;28;20039;-77
2021/08/30 11:18:25;;;;;;;7.95;3.85;;;21.30;90.60;;;;;;5033454;28;20018;-76
2021/08/30 11:20:51;;;;;;;7.70;4.45;;;21.20;90.70;;;;;;5049097;28;20026;-76
2021/08/30 11:23:17;;;;;;;6.22;3.70;;;21.10;90.70;;;;;;5034051;28;20029;-76
2021/08/30 11:25:43;;;;;;;6.57;3.75;;;21.10;90.80;;;;;;5034336;28;20032;-76
2021/08/30 11:28:18;;;;;;;6.43;3.95;;;21.00;90.80;;;;;;5033442;28;20104;-76
2021/08/30 11:30:45;;;;;;;9.30;4.50;;;21.10;90.70;;;;;;5034256;28;20040;-77
2021/08/30 11:33:24;;;;;;;6.07;3.53;;;21.20;90.60;;;;;;5033270;28;20107;-77
2021/08/30 11:35:51;;;;;;;6.40;3.60;;;21.30;90.40;;;;;;5034634;28;20037;-76
2021/08/30 11:38:17;;;;;;;5.70;3.47;;;21.40;90.20;;;;;;5034415;28;20036;-76
2021/08/30 11:40:43;;;;;;;9.48;4.38;;;21.40;89.90;;;;;;5049216;28;20087;-76
2021/08/30 11:43:16;;;;;;;6.68;3.67;;;21.40;89.40;;;;;;5033220;28;20025;-76
2021/08/30 11:45:43;;;;;;;7.97;3.85;;;21.50;89.10;;;;;;5032767;28;20022;-76
2021/08/30 11:48:15;;;;;;;7.50;4.00;;;21.40;89.20;;;;;;5033432;28;20022;-76
2021/08/30 11:50:43;;;;;;;5.93;3.55;;;21.40;89.20;;;;;;5033954;28;20029;-76
2021/08/30 11:53:13;;;;;;;5.95;3.38;;;21.30;89.30;;;;;;5033273;28;20022;-76
2021/08/30 11:55:39;;;;;;;6.82;3.40;;;21.30;89.20;;;;;;5033532;28;20434;-76
2021/08/30 11:58:05;;;;;;;6.18;3.50;;;21.20;89.10;;;;;;5033507;28;20087;-76
2021/08/30 12:00:31;;;;;;;5.40;3.05;;;21.20;88.90;;;;;;5033633;28;20030;-76
2021/08/30 12:03:12;;;;;;;7.05;3.50;;;21.30;88.70;;;;;;5032961;28;20025;-77
2021/08/30 12:05:37;;;;;;;6.83;3.83;;;21.50;88.50;;;;;;5034226;28;20025;-77
2021/08/30 12:08:03;;;;;;;4.60;3.28;;;21.60;88.00;;;;;;5033045;28;20013;-77
2021/08/30 12:10:30;;;;;;;6.80;3.67;;;21.80;87.50;;;;;;5032183;28;20096;-77
2021/08/30 12:15:31;;;;;;;7.50;3.53;;;22.00;87.10;;;;;;5033677;28;20033;-77
2021/08/30 12:18:00;;;;;;;7.28;3.90;;;22.00;87.20;;;;;;5032863;28;20111;-77
2021/08/30 12:20:32;;;;;;;7.05;3.30;;;22.00;87.50;;;;;;5033307;28;20025;-77
2021/08/30 12:23:00;;;;;;;5.85;3.30;;;22.10;87.50;;;;;;5032570;28;20435;-77
2021/08/30 12:25:28;;;;;;;5.43;3.60;;;22.20;87.20;;;;;;5033453;28;20028;-77
2021/08/30 12:27:55;;;;;;;5.13;3.08;;;22.30;86.80;;;;;;5030314;28;20032;-77
2021/08/30 12:30:29;;;;;;;4.70;2.92;;;22.30;86.50;;;;;;5033067;28;20021;-77
2021/08/30 12:33:08;;;;;;;6.45;3.25;;;22.30;86.10;;;;;;5032829;28;20029;-77
2021/08/30 12:35:43;;;;;;;6.20;3.35;;;22.20;85.90;;;;;;5033090;28;20100;-77
2021/08/30 12:38:10;;;;;;;5.25;3.00;;;22.20;85.90;;;;;;5032800;28;20462;-77
2021/08/30 12:40:38;;;;;;;5.05;2.75;;;22.20;85.80;;;;;;5033018;28;20029;-77
2021/08/30 12:43:05;;;;;;;6.00;2.80;;;22.20;85.70;;;;;;5030886;28;20093;-78
2021/08/30 12:45:31;;;;;;;5.32;2.85;;;22.30;85.50;;;;;;5032869;28;20474;-76
2021/08/30 12:47:57;;;;;;;4.18;2.45;;;22.30;84.90;;;;;;5032154;28;20027;-76
2021/08/30 12:50:24;;;;;;;6.25;3.47;;;22.40;84.80;;;;;;5032728;28;20358;-76